Time;durP1;ratioP1;P1;durP2;ratioP2;P2;SDS_P1;SDS_P2;PMS_P1;PMS_P2;Temp;Humidity;BMP_temperature;BMP_pressure;BME280_temperature;BME280_humidity;BME280_pressure;Samples;Min_cycle;Max_cycle;Signal;HPM_P1;HPM_P2
2022/07/19 00:00:49;;;;;;;13.18;2.40;;;;;;;44.10;17.79;100743.69;5053823;28;20467;-62
2022/07/19 00:03:20;;;;;;;14.10;2.28;;;;;;;44.25;17.68;100727.25;5045978;28;20030;-61
2022/07/19 00:05:47;;;;;;;14.23;2.33;;;;;;;44.51;17.27;100720.84;5039268;28;20036;-61
2022/07/19 00:08:14;;;;;;;24.35;2.60;;;;;;;44.26;17.78;100728.03;5053031;28;20040;-61
2022/07/19 00:10:41;;;;;;;17.88;2.70;;;;;;;43.89;17.92;100722.75;5051490;28;20067;-61
2022/07/19 00:13:08;;;;;;;20.55;3.10;;;;;;;43.69;18.04;100719.84;5054112;28;20029;-62
2022/07/19 00:15:34;;;;;;;14.77;2.40;;;;;;;43.22;18.37;100718.69;5053719;28;20028;-63
2022/07/19 00:18:01;;;;;;;16.05;2.40;;;;;;;43.13;17.84;100718.78;5053284;28;20021;-62
2022/07/19 00:20:28;;;;;;;11.23;1.73;;;;;;;42.51;18.26;100722.41;5052489;28;20470;-62
2022/07/19 00:22:54;;;;;;;26.17;2.65;;;;;;;42.71;18.27;100722.59;5052406;28;20040;-62
2022/07/19 00:25:21;;;;;;;17.85;2.47;;;;;;;42.54;17.75;100698.56;5045070;28;20507;-63
2022/07/19 00:27:48;;;;;;;15.98;2.20;;;;;;;42.33;18.63;100716.78;5033334;28;20044;-63
2022/07/19 00:30:14;;;;;;;10.98;1.80;;;;;;;42.05;18.73;100728.34;5038195;28;20040;-64
2022/07/19 00:32:41;;;;;;;13.25;1.98;;;;;;;41.55;19.72;100725.00;5045247;28;20021;-62
2022/07/19 00:35:08;;;;;;;6.53;1.90;;;;;;;42.00;19.49;100726.13;5046182;28;20132;-64
2022/07/19 00:37:35;;;;;;;16.20;2.08;;;;;;;41.56;20.17;100720.09;5035158;28;20468;-63
2022/07/19 00:40:02;;;;;;;16.77;2.03;;;;;;;41.60;19.84;100710.09;5044591;28;20458;-63
2022/07/19 00:42:29;;;;;;;14.07;1.92;;;;;;;41.51;19.67;100712.97;5048714;28;20037;-65
2022/07/19 00:44:56;;;;;;;10.80;2.13;;;;;;;41.80;19.27;100705.91;5041434;28;20026;-65
2022/07/19 00:47:23;;;;;;;13.63;2.10;;;;;;;41.91;19.90;100697.63;5049841;28;20075;-66
2022/07/19 00:49:50;;;;;;;14.45;2.15;;;;;;;41.85;20.02;100708.94;5048658;28;20041;-64
2022/07/19 00:52:20;;;;;;;21.42;2.38;;;;;;;41.87;20.51;100705.59;5048640;28;20040;-63
2022/07/19 00:54:48;;;;;;;15.93;3.03;;;;;;;42.13;20.02;100700.25;5046880;28;20025;-64
2022/07/19 00:57:15;;;;;;;13.93;2.25;;;;;;;41.64;20.49;100696.44;5039431;28;20407;-64
2022/07/19 00:59:43;;;;;;;10.50;2.08;;;;;;;41.63;20.87;100689.13;5047760;28;20120;-64
2022/07/19 01:02:12;;;;;;;14.90;2.03;;;;;;;41.45;20.91;100696.97;5052119;28;20059;-65
2022/07/19 01:04:38;;;;;;;16.38;2.45;;;;;;;41.84;20.98;100695.94;5051381;28;20033;-64
2022/07/19 01:07:06;;;;;;;22.27;2.47;;;;;;;41.95;20.58;100681.13;5083760;28;20033;-64
2022/07/19 01:09:36;;;;;;;17.05;2.28;;;;;;;41.77;20.52;100687.69;5042623;28;20067;-64
2022/07/19 01:12:04;;;;;;;12.27;2.00;;;;;;;42.44;19.99;100677.03;5049867;28;20411;-64
2022/07/19 01:14:31;;;;;;;19.02;2.60;;;;;;;43.10;19.19;100676.88;5050382;28;20072;-65
2022/07/19 01:16:59;;;;;;;18.42;2.55;;;;;;;42.77;19.43;100682.69;5051365;28;20048;-64
2022/07/19 01:19:26;;;;;;;17.98;2.20;;;;;;;42.65;19.07;100678.81;5052440;28;20061;-65
2022/07/19 01:21:53;;;;;;;15.60;2.10;;;;;;;42.35;18.73;100686.44;5052198;28;20052;-64
2022/07/19 01:24:19;;;;;;;9.27;1.75;;;;;;;41.95;19.17;100692.53;5052004;28;20115;-65
2022/07/19 01:26:46;;;;;;;18.30;2.45;;;;;;;41.94;19.70;100700.31;5052346;28;20442;-64
2022/07/19 01:29:17;;;;;;;12.13;2.40;;;;;;;41.32;20.96;100691.47;5048334;28;20033;-64
2022/07/19 01:31:44;;;;;;;13.10;2.00;;;;;;;41.49;20.68;100697.63;5046201;28;20037;-64
2022/07/19 01:34:11;;;;;;;26.83;3.03;;;;;;;41.14;21.10;100694.31;5035247;28;20056;-64
2022/07/19 01:36:38;;;;;;;15.00;2.55;;;;;;;41.39;20.85;100696.03;5044676;28;20056;-65
2022/07/19 01:39:04;;;;;;;17.83;2.50;;;;;;;41.46;20.82;100687.91;5043952;28;20039;-64
2022/07/19 01:41:31;;;;;;;14.60;2.10;;;;;;;41.16;21.43;100692.56;5047153;28;20494;-64
2022/07/19 01:43:57;;;;;;;13.65;2.38;;;;;;;41.19;21.21;100696.53;5051626;28;20128;-65
2022/07/19 01:46:24;;;;;;;10.98;2.10;;;;;;;41.23;20.90;100702.84;5050773;28;20040;-64
2022/07/19 01:48:51;;;;;;;12.48;1.90;;;;;;;41.38;20.72;100715.22;5050776;28;20379;-64
2022/07/19 01:51:18;;;;;;;114.65;6.00;;;;;;;41.08;21.29;100705.56;5048696;28;20167;-64
2022/07/19 01:53:44;;;;;;;15.85;2.20;;;;;;;40.85;21.96;100715.56;5036382;28;20490;-66
2022/07/19 01:56:11;;;;;;;12.13;2.15;;;;;;;40.53;22.00;100707.56;5043430;28;20037;-66
2022/07/19 01:58:38;;;;;;;20.85;2.40;;;;;;;40.66;21.89;100713.94;5045144;28;20029;-66
2022/07/19 02:01:04;;;;;;;14.88;2.38;;;;;;;40.68;21.85;100714.25;5041679;28;20033;-67
2022/07/19 02:03:31;;;;;;;17.67;2.15;;;;;;;40.56;21.81;100712.31;5038507;28;20539;-66
2022/07/19 02:05:58;;;;;;;17.80;2.20;;;;;;;40.80;21.56;100718.22;5036699;28;20044;-67
2022/07/19 02:08:24;;;;;;;12.95;2.20;;;;;;;40.70;21.54;100715.34;5038103;28;20594;-67
2022/07/19 02:10:51;;;;;;;10.13;1.95;;;;;;;40.37;22.25;100706.56;5038143;28;20502;-66
2022/07/19 02:13:18;;;;;;;13.73;2.30;;;;;;;40.08;22.60;100706.97;5039669;28;20063;-66
2022/07/19 02:15:45;;;;;;;12.88;2.60;;;;;;;39.86;22.83;100709.88;5034440;28;20038;-66
2022/07/19 02:18:12;;;;;;;10.77;1.90;;;;;;;39.75;23.23;100717.25;5036761;28;20025;-65
2022/07/19 02:20:39;;;;;;;12.20;1.90;;;;;;;39.78;23.14;100722.78;5038803;28;20029;-66
2022/07/19 02:23:06;;;;;;;18.75;2.22;;;;;;;39.70;23.48;100723.53;5039848;28;20071;-66
2022/07/19 02:25:33;;;;;;;15.10;2.67;;;;;;;39.51;24.46;100723.41;5034835;28;20026;-66
2022/07/19 02:28:00;;;;;;;18.08;2.58;;;;;;;39.34;24.43;100724.09;5037291;28;20033;-65
2022/07/19 02:30:28;;;;;;;16.48;2.25;;;;;;;39.16;25.11;100736.91;5041083;28;20082;-66
2022/07/19 02:32:54;;;;;;;17.77;2.90;;;;;;;38.95;25.52;100743.31;5042264;28;20163;-65
2022/07/19 02:35:21;;;;;;;13.70;2.45;;;;;;;38.78;26.37;100742.69;5038450;28;20037;-65
2022/07/19 02:37:47;;;;;;;25.98;3.20;;;;;;;38.65;26.49;100741.94;5038142;28;20100;-66
2022/07/19 02:40:14;;;;;;;14.55;2.70;;;;;;;38.48;26.52;100740.47;5040975;28;20492;-66
2022/07/19 02:42:41;;;;;;;13.40;2.22;;;;;;;38.47;27.14;100767.28;5041444;28;20096;-65
2022/07/19 02:45:08;;;;;;;16.83;2.35;;;;;;;38.37;26.73;100763.53;5040768;28;20013;-66
2022/07/19 02:47:35;;;;;;;22.05;2.75;;;;;;;38.27;27.05;100759.81;5043306;28;20510;-67
2022/07/19 02:50:02;;;;;;;13.05;2.80;;;;;;;38.07;27.25;100751.50;5042051;28;20038;-66
2022/07/19 02:52:30;;;;;;;19.08;2.65;;;;;;;38.11;27.65;100765.56;5045825;28;20026;-67
2022/07/19 02:54:57;;;;;;;15.93;2.55;;;;;;;38.10;27.70;100778.97;5046796;28;20025;-67
2022/07/19 02:57:24;;;;;;;19.75;2.65;;;;;;;37.97;27.74;100775.31;5038127;28;20075;-67
2022/07/19 02:59:50;;;;;;;21.27;3.35;;;;;;;37.84;28.17;100787.91;5040275;28;20040;-66
2022/07/19 03:02:17;;;;;;;18.40;2.78;;;;;;;37.81;28.29;100783.91;5045744;28;20041;-66
2022/07/19 03:04:44;;;;;;;17.10;2.85;;;;;;;37.76;28.19;100775.97;5040892;28;20017;-66
2022/07/19 03:07:10;;;;;;;17.52;3.05;;;;;;;37.60;28.53;100787.38;5042545;28;20710;-66
2022/07/19 03:09:37;;;;;;;17.30;2.58;;;;;;;37.56;28.84;100778.16;5039577;28;20112;-65
2022/07/19 03:12:04;;;;;;;11.15;2.33;;;;;;;37.40;29.08;100788.31;5056048;28;20056;-66
2022/07/19 03:14:31;;;;;;;15.75;2.90;;;;;;;37.39;29.45;100794.44;5031541;28;20052;-67
2022/07/19 03:16:57;;;;;;;15.35;2.20;;;;;;;37.28;29.60;100796.78;5044426;28;20034;-66
2022/07/19 03:19:27;;;;;;;13.57;2.58;;;;;;;37.21;30.76;100794.91;5042056;28;20376;-66
2022/07/19 03:21:54;;;;;;;14.52;2.75;;;;;;;36.91;31.14;100785.56;5040038;28;20080;-67
2022/07/19 03:24:21;;;;;;;17.35;2.85;;;;;;;36.87;31.63;100799.03;5042106;28;20479;-67
2022/07/19 03:26:48;;;;;;;22.00;2.92;;;;;;;36.80;31.86;100799.19;5044018;28;20075;-66
2022/07/19 03:29:15;;;;;;;16.23;2.97;;;;;;;36.74;32.24;100803.78;5043601;28;20040;-68
2022/07/19 03:31:42;;;;;;;13.90;3.00;;;;;;;36.74;32.30;100797.31;5041008;28;20104;-65
2022/07/19 03:34:09;;;;;;;18.58;2.78;;;;;;;36.52;32.96;100800.69;5040151;28;20471;-66
2022/07/19 03:36:35;;;;;;;16.27;2.78;;;;;;;36.38;33.73;100800.22;5044413;28;20029;-66
2022/07/19 03:39:03;;;;;;;40.40;4.28;;;;;;;36.35;33.55;100804.75;5044350;28;20478;-66
2022/07/19 03:41:29;;;;;;;15.20;2.78;;;;;;;36.39;33.20;100804.66;5048692;28;20045;-67
2022/07/19 03:43:56;;;;;;;14.30;3.15;;;;;;;36.31;33.21;100804.84;5043896;28;20030;-65
2022/07/19 03:46:22;;;;;;;16.42;4.07;;;;;;;36.28;33.90;100800.03;5049743;28;20388;-66
2022/07/19 03:48:49;;;;;;;18.85;5.07;;;;;;;36.22;34.31;100815.13;5049425;28;20036;-66
2022/07/19 03:51:16;;;;;;;19.80;4.47;;;;;;;36.21;34.18;100817.16;5045439;28;20020;-66
2022/07/19 03:53:43;;;;;;;16.42;4.10;;;;;;;36.23;34.27;100823.16;5049176;28;20120;-66
2022/07/19 03:56:09;;;;;;;13.98;3.20;;;;;;;36.12;33.95;100831.13;5045048;28;20021;-66
2022/07/19 03:58:36;;;;;;;17.77;3.30;;;;;;;36.09;34.72;100831.19;5052605;28;20024;-66
2022/07/19 04:01:03;;;;;;;12.52;3.13;;;;;;;36.07;34.35;100857.09;5050553;28;20075;-66
2022/07/19 04:03:30;;;;;;;8.98;2.63;;;;;;;35.97;34.72;100853.25;5049645;28;20029;-67
2022/07/19 04:05:56;;;;;;;12.60;2.65;;;;;;;35.99;33.32;100852.81;5049079;28;20048;-66
2022/07/19 04:08:23;;;;;;;13.57;2.60;;;;;;;35.93;33.42;100854.59;5047451;28;20117;-64
2022/07/19 04:10:50;;;;;;;10.93;2.78;;;;;;;35.88;33.58;100861.53;5041483;28;20033;-65
2022/07/19 04:13:16;;;;;;;8.55;2.10;;;;;;;35.87;32.94;100862.75;5044643;28;20112;-66
2022/07/19 04:15:43;;;;;;;12.45;2.17;;;;;;;35.82;33.39;100863.25;5047434;28;20028;-63
2022/07/19 04:18:10;;;;;;;14.32;2.60;;;;;;;35.72;33.51;100865.03;5055039;28;20130;-66
2022/07/19 04:20:36;;;;;;;7.78;1.90;;;;;;;35.69;32.91;100865.13;5048210;28;20021;-66
2022/07/19 04:23:03;;;;;;;9.60;2.47;;;;;;;35.61;33.23;100870.13;5043667;28;20032;-65
2022/07/19 04:25:30;;;;;;;7.55;1.70;;;;;;;35.60;32.90;100870.56;5042174;28;20031;-66
2022/07/19 04:27:57;;;;;;;8.30;2.30;;;;;;;35.52;33.33;100881.19;5048015;28;20051;-64
2022/07/19 04:30:23;;;;;;;11.27;2.33;;;;;;;35.45;33.35;100878.50;5050282;28;20407;-64
2022/07/19 04:32:50;;;;;;;9.65;2.38;;;;;;;35.43;33.07;100887.41;5051368;28;20055;-65
2022/07/19 04:35:17;;;;;;;12.40;4.22;;;;;;;35.35;32.64;100893.63;5048220;28;20025;-66
2022/07/19 04:37:44;;;;;;;13.90;2.80;;;;;;;35.17;33.21;100893.09;5062358;28;20123;-65
2022/07/19 04:40:11;;;;;;;9.18;2.38;;;;;;;35.05;33.25;100898.16;5047629;28;20091;-65
2022/07/19 04:42:39;;;;;;;9.77;2.88;;;;;;;34.90;33.32;100893.97;5050296;28;20085;-64
2022/07/19 04:45:07;;;;;;;20.05;3.50;;;;;;;34.89;33.21;100909.31;5047591;28;20052;-64
2022/07/19 04:47:36;;;;;;;13.15;2.72;;;;;;;34.87;33.02;100908.94;5043887;28;20041;-65
2022/07/19 04:50:03;;;;;;;26.67;3.60;;;;;;;34.83;33.04;100910.97;5048834;28;20093;-65
2022/07/19 04:52:32;;;;;;;25.35;3.60;;;;;;;34.81;33.78;100921.88;5042315;28;20495;-65
2022/07/19 04:55:01;;;;;;;29.58;3.80;;;;;;;34.71;34.66;100911.56;5048328;28;20120;-64
2022/07/19 04:57:30;;;;;;;206.98;12.27;;;;;;;34.67;34.43;100919.31;5050898;28;20021;-64
2022/07/19 04:59:57;;;;;;;161.57;10.02;;;;;;;34.60;39.13;100914.53;5046838;28;20037;-64
2022/07/19 05:02:24;;;;;;;39.72;5.30;;;;;;;34.41;39.35;100918.84;5047007;28;20021;-63
2022/07/19 05:04:55;;;;;;;42.55;4.65;;;;;;;34.33;38.38;100914.50;5046670;28;20029;-66
2022/07/19 05:07:23;;;;;;;37.88;4.40;;;;;;;34.27;40.11;100918.19;5050216;28;20033;-63
2022/07/19 05:09:54;;;;;;;16.92;3.25;;;;;;;34.29;37.25;100921.38;5047757;28;20033;-65
2022/07/19 05:12:20;;;;;;;13.52;2.90;;;;;;;34.18;38.32;100922.34;5048632;28;20040;-65
2022/07/19 05:14:49;;;;;;;22.80;3.17;;;;;;;34.16;37.83;100921.97;5048509;28;20104;-64
2022/07/19 05:17:15;;;;;;;13.23;3.20;;;;;;;34.16;36.00;100918.34;5051255;28;20078;-64
2022/07/19 05:19:42;;;;;;;14.52;2.97;;;;;;;34.02;36.94;100918.50;5052202;28;20028;-64
2022/07/19 05:22:09;;;;;;;36.72;3.75;;;;;;;33.93;38.24;100911.34;5051945;28;20399;-64
2022/07/19 05:24:36;;;;;;;21.42;2.83;;;;;;;33.89;37.62;100915.41;5052196;28;20486;-66
2022/07/19 05:27:02;;;;;;;46.20;4.35;;;;;;;33.87;37.26;100915.03;5052360;28;20033;-64
2022/07/19 05:29:29;;;;;;;10.55;2.67;;;;;;;33.86;37.19;100913.44;5052555;28;20023;-68
2022/07/19 05:31:56;;;;;;;279.95;16.55;;;;;;;33.84;38.17;100916.69;5051577;28;20025;-66
2022/07/19 05:34:22;;;;;;;39.42;4.07;;;;;;;33.79;37.32;100928.41;5052465;28;20021;-63
2022/07/19 05:36:49;;;;;;;154.90;10.23;;;;;;;33.76;37.37;100925.63;5051920;28;20037;-65
2022/07/19 05:39:16;;;;;;;33.97;4.20;;;;;;;33.79;37.88;100917.13;5050618;28;20044;-64
2022/07/19 05:41:44;;;;;;;16.27;3.65;;;;;;;33.78;37.04;100932.44;5052751;28;20372;-66
2022/07/19 05:44:11;;;;;;;12.32;2.72;;;;;;;33.69;37.00;100912.38;5047688;28;20041;-65
2022/07/19 05:46:40;;;;;;;13.23;2.53;;;;;;;33.69;37.67;100923.66;5052224;28;20070;-65
2022/07/19 05:49:08;;;;;;;11.93;2.60;;;;;;;33.69;36.61;100925.69;5047514;28;20052;-64
2022/07/19 05:51:36;;;;;;;13.55;2.47;;;;;;;33.70;36.56;100927.28;5044869;28;20030;-64
2022/07/19 05:54:03;;;;;;;10.77;2.60;;;;;;;33.68;37.28;100929.72;5035497;28;20033;-64
2022/07/19 05:56:31;;;;;;;17.90;3.05;;;;;;;33.65;37.42;100922.91;5046133;28;20108;-63
2022/07/19 05:58:58;;;;;;;17.15;3.33;;;;;;;33.62;37.95;100921.72;5045840;28;20467;-63
2022/07/19 06:01:25;;;;;;;15.57;3.05;;;;;;;33.55;37.29;100924.59;5047764;28;20487;-63
2022/07/19 06:03:57;;;;;;;11.95;2.47;;;;;;;33.53;37.33;100909.31;5067498;28;20071;-65
2022/07/19 06:06:27;;;;;;;11.40;2.85;;;;;;;33.53;37.14;100917.78;5050624;28;20047;-63
2022/07/19 06:08:54;;;;;;;13.07;2.45;;;;;;;33.49;37.13;100917.81;5048302;28;20043;-63
2022/07/19 06:11:22;;;;;;;9.18;2.38;;;;;;;33.45;37.17;100921.91;5046750;28;20021;-63
2022/07/19 06:13:49;;;;;;;14.05;2.70;;;;;;;33.34;36.72;100908.69;5036505;28;20036;-63
2022/07/19 06:16:16;;;;;;;11.70;2.42;;;;;;;33.42;36.88;100926.34;5037004;28;20052;-63
2022/07/19 06:18:44;;;;;;;12.93;3.15;;;;;;;33.44;37.39;100923.91;5041709;28;20041;-63
2022/07/19 06:21:15;;;;;;;17.85;2.97;;;;;;;33.38;37.78;100919.94;5057022;28;20402;-65
2022/07/19 06:23:43;;;;;;;14.25;2.70;;;;;;;33.30;38.13;100916.34;5066262;28;20036;-63
2022/07/19 06:26:11;;;;;;;14.95;2.53;;;;;;;33.25;38.72;100907.56;5064957;28;20025;-63
2022/07/19 06:28:39;;;;;;;13.23;2.70;;;;;;;33.23;38.73;100905.16;5063331;28;20103;-63
2022/07/19 06:31:14;;;;;;;10.00;2.83;;;;;;;33.19;38.45;100910.00;5044083;28;20029;-65
2022/07/19 06:33:42;;;;;;;12.77;3.25;;;;;;;33.12;38.80;100906.44;5055741;28;20036;-64
2022/07/19 06:36:08;;;;;;;20.83;3.45;;;;;;;33.08;38.61;100906.50;5055883;28;20103;-65
2022/07/19 06:38:36;;;;;;;13.30;3.60;;;;;;;33.03;39.40;100906.91;5055784;28;20033;-65
2022/07/19 06:41:03;;;;;;;10.65;3.33;;;;;;;32.92;39.56;100906.19;5055751;28;20071;-66
2022/07/19 06:43:30;;;;;;;20.17;3.47;;;;;;;32.96;39.30;100909.78;5054465;28;20037;-65
2022/07/19 06:45:57;;;;;;;11.20;3.00;;;;;;;32.93;39.33;100907.81;5055880;28;20045;-64
2022/07/19 06:48:23;;;;;;;16.25;3.40;;;;;;;32.91;39.30;100911.03;5056299;28;20051;-64
2022/07/19 06:50:50;;;;;;;14.75;2.80;;;;;;;32.90;39.37;100917.09;5055707;28;20021;-64
2022/07/19 06:53:17;;;;;;;13.73;3.63;;;;;;;32.90;39.73;100922.72;5055526;28;20028;-65
2022/07/19 06:55:44;;;;;;;11.60;2.70;;;;;;;32.84;39.74;100902.63;5055698;28;20076;-64
2022/07/19 06:58:11;;;;;;;9.98;3.13;;;;;;;32.91;40.03;100904.59;5052693;28;20037;-63
2022/07/19 07:00:38;;;;;;;16.02;3.28;;;;;;;32.88;40.61;100903.41;5053809;28;20162;-63
2022/07/19 07:03:05;;;;;;;9.35;3.15;;;;;;;32.86;39.72;100911.47;5055277;28;20062;-63
2022/07/19 07:05:32;;;;;;;18.77;3.38;;;;;;;32.83;40.23;100895.38;5052927;28;20028;-64
2022/07/19 07:07:59;;;;;;;14.88;3.65;;;;;;;32.79;40.08;100890.97;5055386;28;20040;-63
2022/07/19 07:10:25;;;;;;;16.75;3.65;;;;;;;32.71;40.51;100888.22;5054175;28;20025;-63
2022/07/19 07:12:52;;;;;;;14.60;3.38;;;;;;;32.79;40.92;100907.88;5052674;28;20052;-63
2022/07/19 07:15:19;;;;;;;12.95;2.80;;;;;;;32.75;41.43;100905.88;5046203;28;20041;-63
2022/07/19 07:17:45;;;;;;;14.40;3.13;;;;;;;32.67;42.11;100915.56;5047885;28;20029;-64
2022/07/19 07:20:12;;;;;;;18.63;3.58;;;;;;;32.57;42.21;100910.81;5038455;28;20033;-64
2022/07/19 07:22:39;;;;;;;15.20;3.70;;;;;;;32.64;42.10;100910.78;5051394;28;20029;-64
2022/07/19 07:25:06;;;;;;;12.38;3.20;;;;;;;32.67;41.96;100926.81;5042699;28;20546;-64
2022/07/19 07:27:33;;;;;;;23.85;3.20;;;;;;;32.65;42.10;100915.19;5043759;28;20056;-64
2022/07/19 07:30:00;;;;;;;18.13;3.78;;;;;;;32.60;42.01;100918.44;5050091;28;20051;-63
2022/07/19 07:32:27;;;;;;;28.80;3.20;;;;;;;32.56;42.37;100925.31;5045541;28;20025;-63
2022/07/19 07:34:54;;;;;;;17.48;2.80;;;;;;;32.47;42.71;100922.91;5054897;28;20047;-64
2022/07/19 07:37:21;;;;;;;14.10;2.70;;;;;;;32.47;43.19;100939.81;5045335;28;20037;-64
2022/07/19 07:39:49;;;;;;;9.82;2.50;;;;;;;32.55;42.58;100947.03;5047669;28;20090;-64
2022/07/19 07:42:16;;;;;;;12.80;2.50;;;;;;;32.44;42.80;100935.81;5038319;28;20046;-64
2022/07/19 07:44:43;;;;;;;24.17;4.00;;;;;;;32.37;43.28;100932.22;5049239;28;20041;-64
2022/07/19 07:47:10;;;;;;;43.30;5.35;;;;;;;32.35;43.67;100941.09;5042675;28;20032;-63
2022/07/19 07:49:38;;;;;;;11.35;3.13;;;;;;;32.31;43.59;100947.91;5041293;28;20168;-65
2022/07/19 07:52:07;;;;;;;11.80;3.00;;;;;;;32.27;43.02;100950.75;5050428;28;20088;-65
2022/07/19 07:54:34;;;;;;;12.98;2.67;;;;;;;32.23;42.35;100943.50;5020530;28;20059;-64
2022/07/19 07:57:01;;;;;;;9.40;3.00;;;;;;;32.22;43.38;100950.34;5047942;28;20091;-64
2022/07/19 07:59:28;;;;;;;11.73;2.97;;;;;;;32.11;43.53;100945.53;5045084;28;20021;-64
2022/07/19 08:01:55;;;;;;;11.48;2.92;;;;;;;32.05;44.08;100958.44;5045440;28;20036;-64
2022/07/19 08:04:21;;;;;;;11.40;2.88;;;;;;;32.10;44.25;100958.00;5054278;28;20426;-63
2022/07/19 08:06:48;;;;;;;11.35;2.88;;;;;;;32.06;43.95;100945.97;5049303;28;20029;-63
2022/07/19 08:09:15;;;;;;;11.75;2.97;;;;;;;32.01;43.60;100945.59;5043221;28;20079;-64
2022/07/19 08:11:42;;;;;;;11.40;2.90;;;;;;;31.91;43.72;100947.22;5041583;28;20048;-64
2022/07/19 08:14:09;;;;;;;7.03;2.58;;;;;;;31.91;43.79;100946.41;5050449;28;20017;-63
2022/07/19 08:16:36;;;;;;;13.10;3.13;;;;;;;31.86;43.76;100948.44;5037332;28;20024;-65
2022/07/19 08:19:03;;;;;;;11.65;2.90;;;;;;;31.80;43.85;100941.63;5047070;28;20419;-65
2022/07/19 08:21:30;;;;;;;7.38;2.88;;;;;;;31.73;44.26;100935.22;5044814;28;20029;-65
2022/07/19 08:23:57;;;;;;;11.18;3.10;;;;;;;31.70;44.93;100941.59;5039516;28;20104;-64
2022/07/19 08:26:24;;;;;;;8.13;2.80;;;;;;;31.60;44.73;100922.75;5052295;28;20424;-64
2022/07/19 08:28:50;;;;;;;11.07;3.20;;;;;;;31.59;44.33;100930.38;5047355;28;20111;-65
2022/07/19 08:31:17;;;;;;;7.70;3.13;;;;;;;31.60;45.07;100926.38;5042579;28;20036;-64
2022/07/19 08:33:44;;;;;;;7.57;2.80;;;;;;;31.59;44.29;100936.00;5046377;28;20052;-64
2022/07/19 08:36:11;;;;;;;12.32;3.15;;;;;;;31.60;44.87;100951.69;5053879;28;20045;-64
2022/07/19 08:38:39;;;;;;;12.98;3.58;;;;;;;31.53;44.91;100946.03;5037293;28;20028;-64
2022/07/19 08:41:07;;;;;;;5.88;2.72;;;;;;;31.57;45.15;100949.66;5053603;28;20380;-64
2022/07/19 08:43:34;;;;;;;10.45;4.38;;;;;;;31.52;45.11;100953.66;5041414;28;20044;-64
2022/07/19 08:46:03;;;;;;;10.85;4.63;;;;;;;31.49;44.82;100951.66;5048846;28;20036;-65
2022/07/19 08:48:34;;;;;;;9.77;3.90;;;;;;;31.45;45.20;100952.88;5036821;28;20117;-64
2022/07/19 08:51:04;;;;;;;9.10;2.95;;;;;;;31.57;43.78;100955.25;5052298;28;20566;-65
2022/07/19 08:53:32;;;;;;;14.55;3.15;;;;;;;31.52;44.39;100958.50;5042415;28;20531;-64
2022/07/19 08:57:56;;;;;;;12.25;3.15;;;;;;;31.49;43.93;100951.66;5048336;28;20556;-64
2022/07/19 08:58:48;;;;;;;10.07;3.40;;;;;;;31.47;44.75;100950.47;5038572;28;20076;-64
2022/07/19 09:01:15;;;;;;;12.18;3.42;;;;;;;31.40;45.40;100944.84;5053392;28;20133;-64
2022/07/19 09:04:14;;;;;;;12.15;3.63;;;;;;;31.44;45.63;100952.09;5052815;28;20037;-65
2022/07/19 09:06:48;;;;;;;12.05;3.67;;;;;;;31.39;46.20;100957.28;5037198;28;20040;-65
2022/07/19 09:09:18;;;;;;;11.68;3.75;;;;;;;31.41;45.98;100957.69;5052080;28;20032;-64
2022/07/19 09:11:50;;;;;;;15.27;3.85;;;;;;;31.45;46.09;100959.31;5040133;28;20120;-63
2022/07/19 09:14:20;;;;;;;12.82;4.05;;;;;;;31.65;45.48;100951.25;5049979;28;20036;-63
2022/07/19 09:17:03;;;;;;;10.88;3.90;;;;;;;31.63;45.95;100969.72;5037821;28;20479;-63
2022/07/19 09:19:37;;;;;;;17.80;3.80;;;;;;;31.52;46.39;100975.34;5052897;28;20045;-64
2022/07/19 09:22:11;;;;;;;15.02;3.83;;;;;;;31.55;46.75;100980.97;5035320;28;20598;-63
2022/07/19 09:24:40;;;;;;;10.05;4.13;;;;;;;31.49;47.20;100976.16;5034744;28;20028;-64
2022/07/19 09:27:25;;;;;;;15.85;5.03;;;;;;;31.50;47.06;100978.56;5050930;28;20426;-64
2022/07/19 09:29:57;;;;;;;12.38;5.47;;;;;;;31.36;47.50;100970.13;5037145;28;20045;-63
2022/07/19 09:32:25;;;;;;;12.52;6.15;;;;;;;31.30;47.05;100968.94;5049097;28;20041;-63
2022/07/19 09:34:57;;;;;;;15.30;7.40;;;;;;;31.41;46.48;100964.09;5051144;28;20402;-63
2022/07/19 09:37:29;;;;;;;15.35;8.60;;;;;;;31.31;47.04;100955.69;5039926;28;20026;-63
2022/07/19 09:40:02;;;;;;;20.70;8.90;;;;;;;31.18;47.72;100950.47;5046106;28;20489;-63
2022/07/19 09:42:36;;;;;;;14.93;9.05;;;;;;;31.14;48.47;100955.25;5036206;28;20052;-64
2022/07/19 09:45:12;;;;;;;19.13;10.57;;;;;;;31.13;49.16;100958.44;5045720;28;20099;-64
2022/07/19 09:47:44;;;;;;;23.13;11.80;;;;;;;31.29;48.97;100956.09;5044375;28;20403;-63
2022/07/19 09:50:16;;;;;;;25.80;9.32;;;;;;;31.29;48.97;100956.09;5036071;28;20038;-64
2022/07/19 09:52:45;;;;;;;22.02;7.82;;;;;;;31.29;48.99;100953.28;5037345;28;20032;-64
2022/07/19 09:55:12;;;;;;;16.02;7.10;;;;;;;31.16;48.82;100957.66;5051673;28;20036;-64
2022/07/19 09:57:45;;;;;;;19.95;7.32;;;;;;;31.07;49.52;100954.44;5040147;28;20091;-64
2022/07/19 10:00:14;;;;;;;21.88;8.05;;;;;;;31.07;49.55;100951.63;5048981;28;20033;-63
2022/07/19 10:02:43;;;;;;;19.98;8.45;;;;;;;31.06;49.90;100947.19;5043339;28;20164;-64
2022/07/19 10:05:12;;;;;;;20.63;8.25;;;;;;;30.97;49.95;100956.81;5052554;28;20033;-63
2022/07/19 10:07:40;;;;;;;25.40;8.65;;;;;;;30.93;50.14;100956.03;5040135;28;20025;-63
2022/07/19 10:10:12;;;;;;;21.98;7.63;;;;;;;30.85;50.47;100965.59;5048368;28;20436;-63
2022/07/19 10:12:41;;;;;;;17.08;8.57;;;;;;;30.92;50.63;100974.06;5036226;28;20369;-63
2022/07/19 10:15:10;;;;;;;20.48;9.77;;;;;;;30.97;50.87;100968.06;5052194;28;20028;-63
2022/07/19 10:18:03;;;;;;;17.13;8.80;;;;;;;30.76;50.87;100973.63;5040356;28;20052;-63
2022/07/19 10:20:31;;;;;;;18.17;8.95;;;;;;;30.74;51.22;100970.41;5048703;28;20126;-63
2022/07/19 10:23:02;;;;;;;16.92;9.10;;;;;;;30.64;53.13;100971.16;5038705;28;20024;-63
2022/07/19 10:25:46;;;;;;;21.33;9.75;;;;;;;30.51;53.57;100973.50;5041596;28;20488;-64
2022/07/19 10:28:35;;;;;;;20.88;9.43;;;;;;;30.38;54.50;100967.44;5048651;28;20088;-63
2022/07/19 10:31:02;;;;;;;21.60;9.93;;;;;;;30.27;54.58;100969.38;5039210;28;20033;-63
2022/07/19 10:33:38;;;;;;;40.33;10.57;;;;;;;30.18;54.77;100956.94;5051822;28;20025;-63
2022/07/19 10:36:38;;;;;;;15.30;8.75;;;;;;;30.22;55.46;100966.97;5052021;28;20400;-63
2022/07/19 10:39:34;;;;;;;19.83;9.27;;;;;;;30.08;55.53;100964.09;5039634;28;20044;-63
2022/07/19 10:42:21;;;;;;;34.83;9.82;;;;;;;29.97;55.88;100941.56;5052105;28;20041;-63
2022/07/19 10:44:57;;;;;;;28.73;10.52;;;;;;;29.95;56.02;100952.34;5037166;28;20032;-63
2022/07/19 10:47:36;;;;;;;29.10;10.00;;;;;;;29.91;56.29;100950.72;5051938;28;20033;-64
2022/07/19 10:50:14;;;;;;;19.92;9.45;;;;;;;29.83;58.00;100944.28;5036719;28;20368;-63
2022/07/19 10:52:42;;;;;;;29.70;10.68;;;;;;;29.81;57.78;100952.28;5035979;28;20395;-63
2022/07/19 10:55:19;;;;;;;21.83;9.20;;;;;;;29.76;58.77;100958.25;5052007;28;20284;-64
2022/07/19 10:57:52;;;;;;;23.23;10.10;;;;;;;29.77;60.15;100957.03;5038615;28;20037;-64
2022/07/19 11:00:30;;;;;;;19.60;8.48;;;;;;;29.77;60.33;100957.84;5048300;28;20044;-65
2022/07/19 11:03:25;;;;;;;22.65;8.68;;;;;;;29.78;59.78;100962.25;5045283;28;20068;-63
2022/07/19 11:06:00;;;;;;;21.17;8.40;;;;;;;29.76;60.37;100967.44;5050720;28;20045;-64
2022/07/19 11:08:35;;;;;;;20.70;7.72;;;;;;;29.66;60.78;100961.78;5039045;28;20569;-63
2022/07/19 11:11:11;;;;;;;;;;;;;;;29.76;61.97;100975.84;5049056;28;20048;-64
2022/07/19 11:13:40;;;;;;;20.25;8.00;;;;;;;29.66;61.29;100962.59;5047180;28;19920;-62
2022/07/19 11:16:07;;;;;;;19.60;7.30;;;;;;;29.68;61.43;100963.00;5038408;28;20781;-65
2022/07/19 11:18:34;;;;;;;16.10;6.85;;;;;;;29.62;61.90;100956.13;5050509;28;20025;-66
2022/07/19 11:21:02;;;;;;;15.88;7.35;;;;;;;29.46;63.52;100961.22;5042237;28;20086;-66
2022/07/19 11:23:31;;;;;;;18.17;7.30;;;;;;;29.41;63.51;100955.94;5044660;28;20034;-66